createdAt,value
2019-05-17T00:00:57.156Z,19.39
2019-05-17T00:01:58.276Z,19.39
2019-05-17T00:03:01.525Z,19.41
2019-05-17T00:04:04.283Z,19.40
2019-05-17T00:05:07.609Z,19.39
2019-05-17T00:06:10.428Z,19.40
2019-05-17T00:07:13.591Z,19.38
2019-05-17T00:08:20.356Z,19.39
2019-05-17T00:09:21.209Z,19.40
2019-05-17T00:10:26.368Z,19.38
2019-05-17T00:11:28.867Z,19.37
2019-05-17T00:12:31.661Z,19.38
2019-05-17T00:13:34.782Z,19.38
2019-05-17T00:14:37.643Z,19.39
2019-05-17T00:15:40.794Z,19.39
2019-05-17T00:16:43.565Z,19.39
2019-05-17T00:17:47.058Z,19.39
2019-05-17T00:18:50.035Z,19.38
2019-05-17T00:19:53.145Z,19.39
2019-05-17T00:20:57.010Z,19.40
2019-05-17T00:22:00.318Z,19.40
2019-05-17T00:23:03.073Z,19.38
2019-05-17T00:24:06.647Z,19.37
2019-05-17T00:25:09.834Z,19.37
2019-05-17T00:26:12.957Z,19.36
2019-05-17T00:27:17.246Z,19.39
2019-05-17T00:28:20.584Z,19.37
2019-05-17T00:29:23.338Z,19.35
2019-05-17T00:30:26.685Z,19.36
2019-05-17T00:31:29.532Z,19.39
2019-05-17T00:32:32.731Z,19.38
2019-05-17T00:33:36.639Z,19.38
2019-05-17T00:34:40.012Z,19.38
2019-05-17T00:35:42.800Z,19.38
2019-05-17T00:36:46.957Z,19.39
2019-05-17T00:37:49.916Z,19.39
2019-05-17T00:38:53.207Z,19.40
2019-05-17T00:39:56.726Z,19.39
2019-05-17T00:40:59.942Z,19.39
2019-05-17T00:42:02.778Z,19.39
2019-05-17T00:43:06.677Z,19.40
2019-05-17T00:44:09.824Z,19.39
2019-05-17T00:45:13.170Z,19.37
2019-05-17T00:46:17.229Z,19.38
2019-05-17T00:47:20.565Z,19.37
2019-05-17T00:48:23.379Z,19.35
2019-05-17T00:49:26.521Z,19.38
2019-05-17T00:50:29.301Z,19.37
2019-05-17T00:51:32.435Z,19.38
2019-05-17T00:52:36.868Z,19.37
2019-05-17T00:53:40.011Z,19.39
2019-05-17T00:54:42.770Z,19.38
2019-05-17T00:55:46.635Z,19.39
2019-05-17T00:56:49.575Z,19.39
2019-05-17T00:57:56.456Z,19.39
2019-05-17T00:58:57.155Z,19.39
2019-05-17T01:00:00.364Z,19.38
2019-05-17T01:01:03.124Z,19.38
2019-05-17T01:02:06.997Z,19.39
2019-05-17T01:03:09.844Z,19.38
2019-05-17T01:04:13.089Z,19.38
2019-05-17T01:05:17.216Z,19.39
2019-05-17T01:06:20.463Z,19.40
2019-05-17T01:07:23.155Z,19.37
2019-05-17T01:08:26.674Z,19.37
2019-05-17T01:09:29.584Z,19.37
2019-05-17T01:10:32.717Z,19.37
2019-05-17T01:11:36.567Z,19.38
2019-05-17T01:12:39.811Z,19.37
2019-05-17T01:13:42.581Z,19.38
2019-05-17T01:14:46.663Z,19.39
2019-05-17T01:15:49.530Z,19.39
2019-05-17T01:16:52.656Z,19.38
2019-05-17T01:17:56.316Z,19.38
2019-05-17T01:18:59.583Z,19.38
2019-05-17T01:20:02.522Z,19.38
2019-05-17T01:21:06.609Z,19.36
2019-05-17T01:22:09.398Z,19.38
2019-05-17T01:23:12.532Z,19.39
2019-05-17T01:24:17.334Z,19.39
2019-05-17T01:25:20.042Z,19.38
2019-05-17T01:26:22.804Z,19.40
2019-05-17T01:27:26.374Z,19.40
2019-05-17T01:28:29.210Z,19.38
2019-05-17T01:29:32.346Z,19.37
2019-05-17T01:30:37.430Z,19.37
2019-05-17T01:31:40.022Z,19.36
2019-05-17T01:32:42.782Z,19.37
2019-05-17T01:33:47.052Z,19.37
2019-05-17T01:34:50.014Z,19.38
2019-05-17T01:35:53.114Z,19.39
2019-05-17T01:36:56.918Z,19.36
2019-05-17T01:38:00.030Z,19.36
2019-05-17T01:39:14.337Z,19.35
2019-05-17T01:40:08.069Z,19.36
2019-05-17T01:41:10.847Z,19.37
2019-05-17T01:42:14.057Z,19.37
2019-05-17T01:43:16.833Z,19.38
2019-05-17T01:44:19.962Z,19.37
2019-05-17T01:45:22.792Z,19.36
2019-05-17T01:46:26.489Z,19.36
2019-05-17T01:47:29.435Z,19.36
2019-05-17T01:48:32.567Z,19.37
2019-05-17T01:49:36.299Z,19.35
2019-05-17T01:50:39.601Z,19.35
2019-05-17T01:51:42.376Z,19.35
2019-05-17T01:52:46.188Z,19.36
2019-05-17T01:53:49.067Z,19.37
2019-05-17T01:54:52.205Z,19.35
2019-05-17T01:55:56.800Z,19.37
2019-05-17T01:56:59.768Z,19.35
2019-05-17T01:58:02.527Z,19.34
2019-05-17T01:59:06.856Z,19.35
2019-05-17T02:00:10.682Z,19.35
2019-05-17T02:01:13.814Z,19.35
2019-05-17T02:02:33.560Z,19.35
2019-05-17T02:03:37.463Z,19.35
2019-05-17T02:04:40.551Z,19.37
2019-05-17T02:05:43.776Z,19.37
2019-05-17T02:06:46.779Z,19.37
2019-05-17T02:07:50.113Z,19.37
2019-05-17T02:08:52.953Z,19.37
2019-05-17T02:09:56.847Z,19.37
2019-05-17T02:10:59.662Z,19.37
2019-05-17T02:12:02.797Z,19.37
2019-05-17T02:13:06.592Z,19.39
2019-05-17T02:14:10.146Z,19.37
2019-05-17T02:15:13.096Z,19.38
2019-05-17T02:16:16.632Z,19.38
2019-05-17T02:17:19.460Z,19.38
2019-05-17T02:18:22.606Z,19.37
2019-05-17T02:19:26.520Z,19.37
2019-05-17T02:20:29.773Z,19.38
2019-05-17T02:21:32.529Z,19.37
2019-05-17T02:22:36.709Z,19.39
2019-05-17T02:23:39.732Z,19.40
2019-05-17T02:24:42.869Z,19.40
2019-05-17T02:25:47.204Z,19.38
2019-05-17T02:26:50.514Z,19.38
2019-05-17T02:27:53.265Z,19.38
2019-05-17T02:28:56.447Z,19.37
2019-05-17T02:30:02.190Z,19.37
2019-05-17T02:31:04.122Z,19.38
2019-05-17T02:32:06.981Z,19.37
2019-05-17T02:33:12.633Z,19.37
2019-05-17T02:34:14.536Z,19.36
2019-05-17T02:35:17.667Z,19.38
2019-05-17T02:36:22.871Z,19.37
2019-05-17T02:37:25.245Z,19.38
2019-05-17T02:38:28.008Z,19.35
2019-05-17T02:39:32.661Z,19.38
2019-05-17T02:40:35.548Z,19.38
2019-05-17T02:41:38.669Z,19.38
2019-05-17T02:42:42.955Z,19.37
2019-05-17T02:43:46.221Z,19.36
2019-05-17T02:44:49.021Z,19.38
2019-05-17T02:45:52.908Z,19.35
2019-05-17T02:46:55.826Z,19.36
2019-05-17T02:47:59.050Z,19.35
2019-05-17T02:49:03.053Z,19.36
2019-05-17T02:50:07.013Z,19.34
2019-05-17T02:51:12.839Z,19.36
2019-05-17T02:52:14.650Z,19.37
2019-05-17T02:53:17.414Z,19.36
2019-05-17T02:54:23.252Z,19.35
2019-05-17T02:55:25.101Z,19.36
2019-05-17T02:56:28.238Z,19.40
2019-05-17T02:57:34.410Z,19.39
2019-05-17T02:58:35.882Z,19.36
2019-05-17T02:59:38.627Z,19.36
2019-05-17T03:00:44.230Z,19.36
2019-05-17T03:01:46.265Z,19.36
2019-05-17T03:02:49.370Z,19.36
2019-05-17T03:03:52.881Z,19.38
2019-05-17T03:04:56.193Z,19.38
2019-05-17T03:05:58.959Z,19.39
2019-05-17T03:07:03.789Z,19.41
2019-05-17T03:08:06.498Z,19.42
2019-05-17T03:09:12.295Z,19.42
2019-05-17T03:10:24.081Z,19.43
2019-05-17T03:11:22.410Z,19.44
2019-05-17T03:12:23.775Z,19.43
2019-05-17T03:13:26.979Z,19.47
2019-05-17T03:14:32.545Z,19.45
2019-05-17T03:15:34.509Z,19.46
2019-05-17T03:16:37.254Z,19.48
2019-05-17T03:17:43.379Z,19.49
2019-05-17T03:18:44.811Z,19.45
2019-05-17T03:19:47.940Z,19.46
2019-05-17T03:20:52.486Z,19.49
2019-05-17T03:21:55.595Z,19.54
2019-05-17T03:22:58.359Z,19.53
2019-05-17T03:24:03.332Z,19.49
2019-05-17T03:25:06.385Z,19.47
2019-05-17T03:26:12.746Z,19.33
2019-05-17T03:27:13.945Z,19.23
2019-05-17T03:28:17.182Z,19.17
2019-05-17T03:29:22.444Z,19.03
2019-05-17T03:30:26.105Z,18.91
2019-05-17T03:31:35.955Z,18.81
2019-05-17T03:32:36.011Z,18.77
2019-05-17T03:33:38.638Z,18.77
2019-05-17T03:34:44.903Z,18.76
2019-05-17T03:35:46.544Z,18.70
2019-05-17T03:36:55.792Z,18.64
2019-05-17T03:37:54.199Z,18.56
2019-05-17T03:38:57.433Z,18.77
2019-05-17T03:40:04.710Z,18.95
2019-05-17T03:41:17.791Z,19.08
2019-05-17T03:42:12.986Z,19.19
2019-05-17T03:43:14.900Z,19.27
2019-05-17T03:44:17.650Z,19.33
2019-05-17T03:45:22.866Z,19.42
2019-05-17T03:46:27.291Z,19.44
2019-05-17T03:47:33.286Z,19.43
2019-05-17T03:48:34.792Z,19.42
2019-05-17T03:49:39.525Z,19.49
2019-05-17T03:50:43.588Z,19.51
2019-05-17T03:51:46.975Z,19.55
2019-05-17T03:52:53.268Z,19.61
2019-05-17T03:53:54.577Z,19.57
2019-05-17T03:54:57.349Z,19.54
2019-05-17T03:56:03.026Z,19.59
2019-05-17T03:57:04.978Z,19.64
2019-05-17T03:58:09.324Z,19.67
2019-05-17T03:59:12.832Z,19.69
2019-05-17T04:00:16.539Z,19.69
2019-05-17T04:01:19.298Z,19.70
2019-05-17T04:02:23.203Z,19.73
2019-05-17T04:03:26.093Z,19.64
2019-05-17T04:04:29.258Z,19.66
2019-05-17T04:05:33.474Z,19.70
2019-05-17T04:06:36.849Z,19.70
2019-05-17T04:07:42.976Z,19.74
2019-05-17T04:08:44.444Z,19.75
2019-05-17T04:09:47.256Z,19.73
2019-05-17T04:10:52.955Z,19.68
2019-05-17T04:11:54.721Z,19.64
2019-05-17T04:12:57.863Z,19.61
2019-05-17T04:14:02.965Z,19.59
2019-05-17T04:15:06.241Z,19.60
2019-05-17T04:16:09.649Z,19.60
2019-05-17T04:17:13.929Z,19.59
2019-05-17T04:18:16.660Z,19.56
2019-05-17T04:19:22.748Z,19.55
2019-05-17T04:20:24.275Z,19.57
2019-05-17T04:21:28.441Z,19.54
2019-05-17T04:22:33.105Z,19.53
2019-05-17T04:23:35.983Z,19.52
2019-05-17T04:24:38.740Z,19.52
2019-05-17T04:25:43.554Z,19.53
2019-05-17T04:26:46.437Z,19.51
2019-05-17T04:27:49.569Z,19.52
2019-05-17T04:28:53.241Z,19.53
2019-05-17T04:29:56.672Z,19.51
2019-05-17T04:31:02.545Z,19.51
2019-05-17T04:32:04.358Z,19.51
2019-05-17T04:33:07.240Z,19.50
2019-05-17T04:34:13.224Z,19.50
2019-05-17T04:35:14.865Z,19.50
2019-05-17T04:36:18.002Z,19.49
2019-05-17T04:37:22.765Z,19.48
2019-05-17T04:38:25.533Z,19.48
2019-05-17T04:39:28.288Z,19.48
2019-05-17T04:40:33.922Z,19.50
2019-05-17T04:41:44.958Z,19.47
2019-05-17T04:42:43.630Z,19.47
2019-05-17T04:43:44.942Z,19.46
2019-05-17T04:44:48.185Z,19.46
2019-05-17T04:45:53.520Z,19.46
2019-05-17T04:46:55.722Z,19.46
2019-05-17T04:47:58.480Z,19.48
2019-05-17T04:49:02.890Z,19.46
2019-05-17T04:50:06.074Z,19.45
2019-05-17T04:51:12.834Z,19.45
2019-05-17T04:52:13.969Z,19.45
2019-05-17T04:53:17.342Z,19.44
2019-05-17T04:54:22.741Z,19.45
2019-05-17T04:55:24.881Z,19.45
2019-05-17T04:56:27.641Z,19.44
2019-05-17T04:57:32.575Z,19.43
2019-05-17T04:58:35.210Z,19.44
2019-05-17T04:59:38.369Z,19.44
2019-05-17T05:00:43.003Z,19.44
2019-05-17T05:01:45.898Z,19.46
2019-05-17T05:02:48.690Z,19.45
2019-05-17T05:03:52.454Z,19.43
2019-05-17T05:04:55.478Z,19.44
2019-05-17T05:05:58.612Z,19.43
2019-05-17T05:07:03.114Z,19.44
2019-05-17T05:08:06.190Z,19.45
2019-05-17T05:09:08.951Z,19.42
2019-05-17T05:10:13.424Z,19.43
2019-05-17T05:11:17.051Z,19.43
2019-05-17T05:12:22.657Z,19.43
2019-05-17T05:13:24.613Z,19.42
2019-05-17T05:14:27.738Z,19.43
2019-05-17T05:15:43.269Z,19.44
2019-05-17T05:16:44.828Z,19.44
2019-05-17T05:17:47.577Z,19.45
2019-05-17T05:18:52.075Z,19.44
2019-05-17T05:19:55.103Z,19.44
2019-05-17T05:20:58.232Z,19.47
2019-05-17T05:22:04.443Z,19.47
2019-05-17T05:23:05.914Z,19.47
2019-05-17T05:24:08.653Z,19.48
2019-05-17T05:25:12.402Z,19.49
2019-05-17T05:26:15.440Z,19.48
2019-05-17T05:27:18.505Z,19.49
2019-05-17T05:28:22.519Z,19.49
2019-05-17T05:29:25.796Z,19.49
2019-05-17T05:30:28.561Z,19.49
2019-05-17T05:31:32.170Z,19.49
2019-05-17T05:32:35.152Z,19.49
2019-05-17T05:33:38.215Z,19.49
2019-05-17T05:34:42.947Z,19.49
2019-05-17T05:35:45.760Z,19.48
2019-05-17T05:36:48.507Z,19.49
2019-05-17T05:37:52.564Z,19.48
2019-05-17T05:38:55.402Z,19.49
2019-05-17T05:39:58.556Z,19.49
2019-05-17T05:41:01.879Z,19.49
2019-05-17T05:42:09.897Z,19.49
2019-05-17T05:43:11.738Z,19.50
2019-05-17T05:44:14.440Z,19.50
2019-05-17T05:45:17.229Z,19.50
2019-05-17T05:46:22.246Z,19.51
2019-05-17T05:47:24.766Z,19.52
2019-05-17T05:48:27.898Z,19.53
2019-05-17T05:49:32.055Z,19.54
2019-05-17T05:50:35.334Z,19.52
2019-05-17T05:51:38.105Z,19.54
2019-05-17T05:52:42.203Z,19.54
2019-05-17T05:53:45.379Z,19.54
2019-05-17T05:54:48.439Z,19.54
2019-05-17T05:55:51.817Z,19.57
2019-05-17T05:56:55.129Z,19.57
2019-05-17T05:57:57.881Z,19.58
2019-05-17T05:59:02.979Z,19.59
2019-05-17T06:00:06.477Z,19.62
2019-05-17T06:01:09.614Z,19.63
2019-05-17T06:02:12.487Z,19.64
2019-05-17T06:03:15.604Z,19.65
2019-05-17T06:04:18.345Z,19.66
2019-05-17T06:05:21.933Z,19.67
2019-05-17T06:06:24.797Z,19.68
2019-05-17T06:07:27.942Z,19.69
2019-05-17T06:08:32.180Z,19.68
2019-05-17T06:09:35.654Z,19.71
2019-05-17T06:10:39.544Z,19.72
2019-05-17T06:11:43.282Z,19.73
2019-05-17T06:12:46.036Z,19.75
2019-05-17T06:13:49.164Z,19.76
2019-05-17T06:14:52.374Z,19.79
2019-05-17T06:15:55.676Z,19.81
2019-05-17T06:16:58.409Z,19.82
2019-05-17T06:18:02.929Z,19.83
2019-05-17T06:19:06.002Z,19.89
2019-05-17T06:20:11.625Z,19.92
2019-05-17T06:21:13.847Z,19.93
2019-05-17T06:22:17.008Z,19.94
2019-05-17T06:23:19.794Z,19.93
2019-05-17T06:24:22.834Z,19.95
2019-05-17T06:25:25.605Z,19.96
2019-05-17T06:26:28.712Z,19.96
2019-05-17T06:27:32.465Z,19.97
2019-05-17T06:28:35.615Z,19.98
2019-05-17T06:29:38.290Z,19.99
2019-05-17T06:30:42.938Z,19.99
2019-05-17T06:31:46.118Z,19.99
2019-05-17T06:32:51.383Z,19.99
2019-05-17T06:33:53.840Z,19.99
2019-05-17T06:34:56.905Z,19.99
2019-05-17T06:36:02.359Z,20.00
2019-05-17T06:37:04.511Z,20.01
2019-05-17T06:38:07.340Z,20.04
2019-05-17T06:39:11.706Z,20.07
2019-05-17T06:40:14.829Z,20.07
2019-05-17T06:41:17.965Z,20.09
2019-05-17T06:42:21.654Z,20.09
2019-05-17T06:43:25.512Z,20.11
2019-05-17T06:44:28.268Z,20.11
2019-05-17T06:45:32.605Z,20.11
2019-05-17T06:46:35.380Z,20.13
2019-05-17T06:47:38.512Z,20.14
2019-05-17T06:48:42.406Z,20.16
2019-05-17T06:50:04.539Z,20.17
2019-05-17T06:51:07.298Z,20.17
2019-05-17T06:52:11.666Z,20.20
2019-05-17T06:53:14.481Z,20.22
2019-05-17T06:54:17.631Z,20.23
2019-05-17T06:55:20.381Z,20.25
2019-05-17T06:56:23.464Z,20.26
2019-05-17T06:57:26.140Z,20.27
2019-05-17T06:58:31.372Z,20.29
2019-05-17T06:59:33.749Z,20.29
2019-05-17T07:00:36.887Z,20.31
2019-05-17T07:01:40.969Z,20.33
2019-05-17T07:02:44.275Z,20.38
2019-05-17T07:03:49.416Z,20.48
2019-05-17T07:04:53.199Z,20.47
2019-05-17T07:05:59.522Z,20.47
2019-05-17T07:07:20.706Z,20.48
2019-05-17T07:08:23.574Z,20.49
2019-05-17T07:09:26.713Z,20.48
2019-05-17T07:10:30.185Z,20.49
2019-05-17T07:11:33.433Z,20.51
2019-05-17T07:12:36.180Z,20.51
2019-05-17T07:13:39.614Z,20.52
2019-05-17T07:14:42.464Z,20.54
2019-05-17T07:15:47.930Z,20.54
2019-05-17T07:16:50.170Z,20.57
2019-05-17T07:17:53.303Z,20.64
2019-05-17T07:18:56.065Z,20.68
2019-05-17T07:19:59.858Z,20.70
2019-05-17T07:21:03.614Z,20.69
2019-05-17T07:22:09.363Z,20.69
2019-05-17T07:23:11.293Z,20.68
2019-05-17T07:24:14.431Z,20.70
2019-05-17T07:25:19.632Z,20.70
2019-05-17T07:26:22.103Z,20.72
2019-05-17T07:27:37.843Z,20.75
2019-05-17T07:28:30.273Z,20.78
2019-05-17T07:29:33.252Z,20.78
2019-05-17T07:30:36.378Z,20.78
2019-05-17T07:31:40.467Z,20.77
2019-05-17T07:32:43.773Z,20.75
2019-05-17T07:33:46.527Z,20.75
2019-05-17T07:34:50.778Z,20.73
2019-05-17T07:35:53.751Z,20.72
2019-05-17T07:36:56.939Z,20.72
2019-05-17T07:37:59.703Z,20.71
2019-05-17T07:39:02.819Z,20.70
2019-05-17T07:40:10.795Z,20.70
2019-05-17T07:41:13.824Z,20.71
2019-05-17T07:42:16.606Z,20.72
2019-05-17T07:43:20.750Z,20.74
2019-05-17T07:44:23.820Z,20.75
2019-05-17T07:45:26.959Z,20.78
2019-05-17T07:46:29.717Z,20.82
2019-05-17T07:47:32.892Z,20.81
2019-05-17T07:48:35.636Z,20.80
2019-05-17T07:49:40.477Z,20.79
2019-05-17T07:50:43.784Z,20.80
2019-05-17T07:51:46.917Z,20.79
2019-05-17T07:52:50.099Z,20.78
2019-05-17T07:53:53.366Z,20.78
2019-05-17T07:54:56.185Z,20.76
2019-05-17T07:55:59.781Z,20.75
2019-05-17T07:57:02.667Z,20.73
2019-05-17T07:58:05.833Z,20.72
2019-05-17T07:59:09.547Z,20.70
2019-05-17T08:00:13.054Z,20.69
2019-05-17T08:01:15.757Z,20.66
2019-05-17T08:02:19.811Z,20.65
2019-05-17T08:03:24.783Z,20.63
2019-05-17T08:04:29.854Z,20.62
2019-05-17T08:05:31.944Z,20.62
2019-05-17T08:06:35.085Z,20.62
2019-05-17T08:07:40.343Z,20.61
2019-05-17T08:08:42.629Z,20.60
2019-05-17T08:09:45.462Z,20.59
2019-05-17T08:10:51.059Z,20.59
2019-05-17T08:11:53.020Z,20.59
2019-05-17T08:12:56.230Z,20.61
2019-05-17T08:13:59.783Z,20.61
2019-05-17T08:15:03.033Z,20.62
2019-05-17T08:16:05.847Z,20.62
2019-05-17T08:17:10.667Z,20.65
2019-05-17T08:18:13.439Z,20.68
2019-05-17T08:19:16.610Z,20.68
2019-05-17T08:20:20.351Z,20.67
2019-05-17T08:21:23.635Z,20.69
2019-05-17T08:22:26.398Z,20.70
2019-05-17T08:23:30.455Z,20.68
2019-05-17T08:24:33.422Z,20.68
2019-05-17T08:25:49.694Z,20.68
2019-05-17T08:26:40.967Z,20.67
2019-05-17T08:27:44.092Z,20.67
2019-05-17T08:28:46.846Z,20.68
2019-05-17T08:29:50.071Z,20.68
2019-05-17T08:30:52.787Z,20.70
2019-05-17T08:31:55.901Z,20.77
2019-05-17T08:33:00.844Z,20.86
2019-05-17T08:34:03.531Z,20.93
2019-05-17T08:35:06.405Z,20.98
2019-05-17T08:36:09.620Z,21.00
2019-05-17T08:37:12.373Z,21.03
2019-05-17T08:38:15.514Z,21.07
2019-05-17T08:39:19.778Z,21.07
2019-05-17T08:40:23.052Z,21.09
2019-05-17T08:41:25.812Z,21.10
2019-05-17T08:42:30.025Z,21.11
2019-05-17T08:43:42.529Z,21.11
2019-05-17T08:44:39.393Z,21.13
2019-05-17T08:45:42.284Z,21.15
2019-05-17T08:46:45.461Z,21.15
2019-05-17T08:47:50.018Z,21.16
2019-05-17T08:48:53.012Z,21.17
2019-05-17T08:49:55.769Z,21.18
2019-05-17T08:51:00.116Z,21.18
2019-05-17T08:52:03.099Z,21.18
2019-05-17T08:53:06.220Z,21.21
2019-05-17T08:54:10.344Z,21.22
2019-05-17T08:55:13.822Z,21.23
2019-05-17T08:56:16.689Z,21.26
2019-05-17T08:57:20.715Z,21.27
2019-05-17T08:58:23.434Z,21.27
2019-05-17T08:59:26.597Z,21.30
2019-05-17T09:00:32.153Z,21.30
2019-05-17T09:01:38.244Z,21.26
2019-05-17T09:02:40.905Z,21.17
2019-05-17T09:03:44.290Z,21.20
2019-05-17T09:04:49.606Z,21.20
2019-05-17T09:05:52.864Z,21.17
2019-05-17T09:06:55.901Z,21.10
2019-05-17T09:08:00.096Z,21.06
2019-05-17T09:09:03.777Z,21.04
2019-05-17T09:10:09.649Z,21.03
2019-05-17T09:11:11.553Z,21.04
2019-05-17T09:12:14.672Z,21.11
2019-05-17T09:13:19.396Z,21.19
2019-05-17T09:14:22.213Z,21.21
2019-05-17T09:15:24.974Z,21.24
2019-05-17T09:16:30.567Z,21.25
2019-05-17T09:17:32.558Z,21.28
2019-05-17T09:18:35.677Z,21.28
2019-05-17T09:19:39.503Z,21.25
2019-05-17T09:20:42.792Z,21.21
2019-05-17T09:21:45.559Z,21.21
2019-05-17T09:22:50.874Z,21.16
2019-05-17T09:23:53.173Z,21.12
2019-05-17T09:24:56.298Z,21.09
2019-05-17T09:25:59.551Z,21.06
2019-05-17T09:27:02.906Z,21.05
2019-05-17T09:28:05.708Z,21.03
2019-05-17T09:29:10.734Z,21.01
2019-05-17T09:30:13.446Z,21.00
2019-05-17T09:31:16.587Z,20.99
2019-05-17T09:32:20.175Z,20.99
2019-05-17T09:33:23.657Z,20.99
2019-05-17T09:34:26.345Z,20.98
2019-05-17T09:35:30.079Z,20.99
2019-05-17T09:36:32.962Z,21.02
2019-05-17T09:37:36.121Z,20.99
2019-05-17T09:38:40.433Z,20.98
2019-05-17T09:39:43.681Z,20.96
2019-05-17T09:40:46.436Z,20.93
2019-05-17T09:41:50.263Z,20.93
2019-05-17T09:42:53.251Z,20.93
2019-05-17T09:44:09.580Z,20.93
2019-05-17T09:45:00.844Z,20.93
2019-05-17T09:46:04.076Z,20.93
2019-05-17T09:47:06.832Z,20.93
2019-05-17T09:48:10.575Z,20.92
2019-05-17T09:49:13.493Z,20.92
2019-05-17T09:50:16.997Z,20.92
2019-05-17T09:51:19.767Z,20.90
2019-05-17T09:52:22.889Z,20.89
2019-05-17T09:53:25.720Z,20.88
2019-05-17T09:54:41.407Z,20.89
2019-05-17T09:55:33.343Z,20.89
2019-05-17T09:56:36.473Z,20.92
2019-05-17T09:57:40.819Z,20.95
2019-05-17T09:58:44.413Z,20.96
2019-05-17T09:59:49.478Z,20.95
2019-05-17T10:00:51.997Z,20.96
2019-05-17T10:01:54.764Z,20.98
2019-05-17T10:02:59.896Z,21.00
2019-05-17T10:04:02.395Z,20.99
2019-05-17T10:05:06.640Z,21.03
2019-05-17T10:06:09.774Z,21.04
2019-05-17T10:07:12.940Z,21.02
2019-05-17T10:08:15.681Z,21.02
2019-05-17T10:09:19.582Z,21.05
2019-05-17T10:10:22.449Z,21.05
2019-05-17T10:11:25.542Z,21.06
2019-05-17T10:12:28.308Z,21.05
2019-05-17T10:13:31.523Z,21.05
2019-05-17T10:14:34.284Z,21.04
2019-05-17T10:15:37.435Z,21.05
2019-05-17T10:16:40.181Z,21.04
2019-05-17T10:17:43.403Z,21.04
2019-05-17T10:18:46.229Z,21.04
2019-05-17T10:19:49.368Z,21.03
2019-05-17T10:20:52.178Z,21.03
2019-05-17T10:21:55.324Z,21.04
2019-05-17T10:22:59.576Z,21.04
2019-05-17T10:24:02.912Z,21.04
2019-05-17T10:25:06.333Z,21.06
2019-05-17T10:26:10.236Z,21.05
2019-05-17T10:27:14.696Z,21.05
2019-05-17T10:28:20.344Z,21.07
2019-05-17T10:29:22.363Z,21.04
2019-05-17T10:30:25.535Z,21.02
2019-05-17T10:31:30.265Z,21.02
2019-05-17T10:32:33.111Z,21.01
2019-05-17T10:33:35.866Z,21.00
2019-05-17T10:34:40.128Z,21.01
2019-05-17T10:35:43.152Z,21.02
2019-05-17T10:36:46.258Z,21.03
2019-05-17T10:37:50.616Z,21.04
2019-05-17T10:38:53.867Z,21.05
2019-05-17T10:39:56.630Z,21.04
2019-05-17T10:40:59.780Z,21.06
2019-05-17T10:42:02.606Z,21.07
2019-05-17T10:43:05.738Z,21.06
2019-05-17T10:44:09.428Z,21.05
2019-05-17T10:45:12.624Z,21.05
2019-05-17T10:46:15.383Z,21.05
2019-05-17T10:47:19.572Z,21.04
2019-05-17T10:48:22.402Z,21.05
2019-05-17T10:49:25.541Z,21.06
2019-05-17T10:50:29.804Z,21.06
2019-05-17T10:51:33.195Z,21.07
2019-05-17T10:52:36.036Z,21.09
2019-05-17T10:53:40.276Z,21.08
2019-05-17T10:54:43.060Z,21.06
2019-05-17T10:55:46.261Z,21.05
2019-05-17T10:56:50.250Z,21.06
2019-05-17T10:57:53.596Z,21.05
2019-05-17T10:58:56.294Z,21.06
2019-05-17T10:59:59.489Z,21.05
2019-05-17T11:01:02.295Z,21.05
2019-05-17T11:02:05.414Z,21.05
2019-05-17T11:03:09.764Z,21.05
2019-05-17T11:04:15.193Z,21.06
2019-05-17T11:05:20.116Z,21.07
2019-05-17T11:06:24.076Z,21.05
2019-05-17T11:07:28.593Z,21.06
2019-05-17T11:08:31.681Z,21.05
2019-05-17T11:09:34.438Z,21.02
2019-05-17T11:10:39.278Z,21.01
2019-05-17T11:11:41.977Z,21.00
2019-05-17T11:12:45.120Z,21.02
2019-05-17T11:13:47.851Z,21.03
2019-05-17T11:15:09.365Z,21.04
2019-05-17T11:15:55.685Z,21.05
2019-05-17T11:17:00.639Z,21.06
2019-05-17T11:18:03.389Z,21.05
2019-05-17T11:19:08.744Z,21.06
2019-05-17T11:20:11.220Z,21.06
2019-05-17T11:21:14.356Z,21.05
2019-05-17T11:22:17.125Z,21.06
2019-05-17T11:23:20.257Z,21.07
2019-05-17T11:24:23.119Z,21.07
2019-05-17T11:25:26.124Z,21.09
2019-05-17T11:26:29.338Z,21.09
2019-05-17T11:27:32.451Z,21.08
2019-05-17T11:28:35.303Z,21.06
2019-05-17T11:29:38.499Z,21.05
2019-05-17T11:30:41.298Z,21.03
2019-05-17T11:31:44.361Z,21.00
2019-05-17T11:32:47.132Z,20.99
2019-05-17T11:33:50.284Z,20.99
2019-05-17T11:34:53.098Z,20.98
2019-05-17T11:35:56.229Z,20.98
2019-05-17T11:36:59.001Z,20.97
2019-05-17T11:38:02.120Z,21.00
2019-05-17T11:39:06.080Z,20.98
2019-05-17T11:40:09.637Z,20.97
2019-05-17T11:41:21.300Z,20.98
2019-05-17T11:42:17.172Z,20.98
2019-05-17T11:43:20.066Z,20.97
2019-05-17T11:44:23.310Z,20.97
2019-05-17T11:45:29.036Z,20.98
2019-05-17T11:46:36.057Z,20.97
2019-05-17T11:47:35.369Z,20.98
2019-05-17T11:48:38.509Z,20.96
2019-05-17T11:49:41.375Z,20.96
2019-05-17T11:50:44.541Z,20.96
2019-05-17T11:51:47.303Z,20.96
2019-05-17T11:52:50.431Z,20.97
2019-05-17T11:53:53.156Z,20.98
2019-05-17T11:54:56.292Z,20.98
2019-05-17T11:55:59.060Z,20.99
2019-05-17T11:57:02.227Z,21.00
2019-05-17T11:58:05.016Z,21.01
2019-05-17T11:59:08.133Z,21.01
2019-05-17T12:00:11.372Z,21.00
2019-05-17T12:01:14.530Z,21.01
2019-05-17T12:02:17.291Z,21.01
2019-05-17T12:03:20.438Z,21.01
2019-05-17T12:04:23.202Z,21.01
2019-05-17T12:05:26.399Z,21.01
2019-05-17T12:06:29.233Z,21.02
2019-05-17T12:07:32.384Z,21.02
2019-05-17T12:08:35.144Z,21.00
2019-05-17T12:09:38.308Z,21.00
2019-05-17T12:10:41.135Z,21.00
2019-05-17T12:11:44.333Z,21.00
2019-05-17T12:12:47.091Z,21.00
2019-05-17T12:13:50.214Z,21.01
2019-05-17T12:14:52.973Z,21.00
2019-05-17T12:15:56.106Z,21.02
2019-05-17T12:16:58.905Z,21.00
2019-05-17T12:18:01.966Z,21.01
2019-05-17T12:19:04.833Z,21.01
2019-05-17T12:20:08.071Z,21.01
2019-05-17T12:21:10.874Z,21.00
2019-05-17T12:22:14.002Z,21.01
2019-05-17T12:23:16.753Z,21.02
2019-05-17T12:24:19.801Z,21.00
2019-05-17T12:25:22.671Z,21.01
2019-05-17T12:26:25.845Z,21.02
2019-05-17T12:27:28.703Z,21.01
2019-05-17T12:28:31.845Z,21.01
2019-05-17T12:29:34.597Z,21.01
2019-05-17T12:30:37.805Z,21.01
2019-05-17T12:31:40.559Z,21.01
2019-05-17T12:32:43.842Z,21.02
2019-05-17T12:33:46.607Z,21.03
2019-05-17T12:34:49.795Z,21.03
2019-05-17T12:35:52.481Z,21.04
2019-05-17T12:36:55.662Z,21.04
2019-05-17T12:37:58.666Z,21.06
2019-05-17T12:39:02.851Z,21.06
2019-05-17T12:40:06.011Z,21.06
2019-05-17T12:41:09.085Z,21.06
2019-05-17T12:42:12.016Z,21.07
2019-05-17T12:43:15.242Z,21.06
2019-05-17T12:44:18.006Z,21.07
2019-05-17T12:45:21.143Z,21.05
2019-05-17T12:46:23.896Z,21.05
2019-05-17T12:47:27.089Z,21.06
2019-05-17T12:48:29.950Z,21.05
2019-05-17T12:49:33.139Z,21.04
2019-05-17T12:50:35.913Z,21.04
2019-05-17T12:51:39.036Z,21.04
2019-05-17T12:52:41.801Z,21.03
2019-05-17T12:53:44.981Z,21.04
2019-05-17T12:54:47.727Z,21.04
2019-05-17T12:55:50.871Z,21.05
2019-05-17T12:56:53.622Z,21.05
2019-05-17T12:57:56.743Z,21.06
2019-05-17T12:59:01.270Z,21.04
2019-05-17T13:00:05.868Z,21.05
2019-05-17T13:01:08.562Z,21.04
2019-05-17T13:02:12.422Z,21.05
2019-05-17T13:03:15.448Z,21.05
2019-05-17T13:04:18.623Z,21.04
2019-05-17T13:05:21.409Z,21.03
2019-05-17T13:06:24.655Z,21.03
2019-05-17T13:07:27.404Z,21.02
2019-05-17T13:08:30.629Z,21.02
2019-05-17T13:09:33.441Z,21.02
2019-05-17T13:10:36.559Z,21.02
2019-05-17T13:11:39.386Z,21.02
2019-05-17T13:12:42.527Z,21.02
2019-05-17T13:13:45.284Z,21.02
2019-05-17T13:14:48.448Z,21.01
2019-05-17T13:15:51.218Z,21.02
2019-05-17T13:16:54.338Z,21.02
2019-05-17T13:17:57.094Z,21.03
2019-05-17T13:19:00.257Z,21.04
2019-05-17T13:20:04.732Z,21.06
2019-05-17T13:21:07.944Z,21.08
2019-05-17T13:22:10.716Z,21.07
2019-05-17T13:23:13.973Z,21.08
2019-05-17T13:24:16.739Z,21.10
2019-05-17T13:25:19.891Z,21.09
2019-05-17T13:26:22.784Z,21.09
2019-05-17T13:27:26.096Z,21.09
2019-05-17T13:28:28.787Z,21.09
2019-05-17T13:29:33.482Z,21.09
2019-05-17T13:30:36.427Z,21.09
2019-05-17T13:31:39.638Z,21.09
2019-05-17T13:32:42.415Z,21.09
2019-05-17T13:33:45.618Z,21.08
2019-05-17T13:34:48.376Z,21.08
2019-05-17T13:35:51.769Z,21.08
2019-05-17T13:36:54.442Z,21.07
2019-05-17T13:37:57.659Z,21.07